< < Back
Terminal Aerodrome Forecast


Current Version              Previous Versions:   1  2  3  4  5  6  7  8  9  

Terminal Aerodrome Forecast

329
FTUS42 KGSP 260540
TAFCLT
TAF
KCLT 260540Z 2606/2706 01007KT 4SM -RA BR OVC015
      TEMPO 2608/2611 2SM RA BR BKN008 OVC014
     FM261100 35011KT 3SM -RA BR OVC008
     FM261500 33009KT 4SM -RA BR OVC014
     FM261800 30008KT P6SM OVC050
     FM270100 21004KT P6SM BKN240=

Latest METAR

807
SAUS70 KWBC 260800
MTRCLT
METAR KCLT 260752Z 36010KT 9SM -RA SCT018 OVC036 08/05 A2997 RMK AO2
SLP148 P0005 T00780050


USA.gov is the U.S. government's official web portal to all federal, state and local government web resources and services.